Farmingdale, New York
Current Conditions -  °F | °C
As of 12:53 AM on Saturday 20 Dec 2014 (Local Time) from KFRG Reporting Station
Clear Clear  
Wind Chill: 26°   Ceiling: Unl
Heat Index: 31°   Visibility: 10mi
Dew Point: 20°   Wind: 5mph
Humidity: 64%   Direction: 350°N
Pressure: 30.19"   Gusts: NA
Location:  40.73°N, 73.44°W
Report Text: KFRG 200553Z AUTO 35004KT 10SM CLR M01/M07 A3019 RMK AO2 SLP223 T10061067 10017 21006 50012
Loading
Personal Weather Stations






























Interactive Weather Map New forecast layout! Learn more

10-Day Weather Forecast

Advertisements
Track Severe Weather on mobile